NCAR-RAP Real-Time Weather Data

Output produced by METARs form (23 February 2020  02:18 UTC)
found at http://weather.rap.ucar.edu/surface/
 
KTUL 230153Z 16013KT 10SM OVC160 12/01 A3012 RMK AO2 SLP200 T01220006
KTUL 230053Z 17014KT 10SM OVC170 13/01 A3012 RMK AO2 SLP200 T01280006
KTUL 222353Z 17013KT 10SM OVC200 14/01 A3011 RMK AO2 SLP198 T01390006 10150 20100 56011
KTUL 222253Z 15010KT 10SM BKN250 14/00 A3011 RMK AO2 SLP198 T01390000
KTUL 222153Z 18013G23KT 10SM BKN250 14/00 A3013 RMK AO2 SLP204 T01440000
KTUL 222053Z 17018G24KT 10SM SCT060 BKN200 14/00 A3015 RMK AO2 SLP209 T01440000 58044
KTUL 221953Z 17013G21KT 10SM FEW060 SCT120 BKN200 14/M01 A3019 RMK AO2 SLP223 T01391006
KTUL 221853Z 18012G20KT 10SM FEW065 SCT120 BKN200 12/M02 A3024 RMK AO2 SLP241 T01171017
KTUL 221753Z 18014KT 10SM SCT065 BKN200 11/M02 A3028 RMK AO2 SLP255 T01061017 10106 20006 58021
KTUL 221653Z 17016KT 10SM FEW080 BKN200 09/M03 A3031 RMK AO2 SLP266 T00891028
KTUL 221553Z 16011G20KT 10SM OVC200 06/M03 A3033 RMK AO2 SLP272 T00611028
KTUL 221453Z 16011KT 10SM OVC200 04/M03 A3034 RMK AO2 SLP277 T00391033 55000
KTUL 221353Z 17008KT 10SM OVC200 02/M04 A3034 RMK AO2 SLP278 T00221044
KTUL 221253Z 15008KT 10SM BKN250 01/M06 A3033 RMK AO2 SLP273 T00111056
KTUL 221153Z 16006KT 10SM BKN250 01/M07 A3034 RMK AO2 SLP277 T00111067 10017 20000 56008
KTUL 221053Z 16007KT 10SM BKN250 01/M08 A3035 RMK AO2 SLP279 T00111078
KTUL 220953Z 16008KT 10SM SCT250 01/M08 A3034 RMK AO2 SLP277 T00111083
KTUL 220853Z 16006KT 10SM SCT250 01/M08 A3036 RMK AO2 SLP286 T00111083 58016
KTUL 220753Z 17006KT 10SM FEW250 01/M08 A3039 RMK AO2 SLP294 T00111083
KTUL 220653Z 17007KT 10SM FEW250 01/M08 A3039 RMK AO2 SLP295 T00111083
KTUL 220553Z 15007KT 10SM FEW250 01/M09 A3041 RMK AO2 SLP303 T00111094 10067 20006 400781078 58012
KTUL 220453Z 17008KT 10SM FEW250 02/M10 A3043 RMK AO2 SLP310 T00221100
KTUL 220353Z 16007KT 10SM FEW250 03/M11 A3044 RMK AO2 SLP313 T00281106
KTUL 220253Z 16009KT 10SM FEW250 03/M11 A3045 RMK AO2 SLP316 T00331111 56007
KTUL 220153Z 16007KT 10SM CLR 04/M11 A3046 RMK AO2 SLP319 T00391106
KTUL 220053Z 14007KT 10SM BKN250 04/M11 A3045 RMK AO2 SLP318 T00391106
KTUL 212353Z 16007KT 10SM CLR 06/M11 A3047 RMK AO2 SLP323 T00611111 10078 20028 56025
KTUL 212253Z 16009KT 10SM BKN250 08/M11 A3049 RMK AO2 SLP329 T00781111
KTUL 212153Z 19007KT 10SM BKN250 07/M10 A3051 RMK AO2 SLP339 T00721100
KTUL 212053Z VRB04KT 10SM FEW200 06/M11 A3054 RMK AO2 SLP349 T00611106 56050
KTUL 211953Z COR 10SM CLR 06/M10 A3059 RMK AO2 SLP363 T00561100
KTUL 211853Z 18007KT 10SM CLR 04/M10 A3064 RMK AO2 PRESFR SLP382 T00441100
KTUL 211753Z 23004KT 10SM CLR 03/M10 A3069 RMK AO2 SLP400 T00281100 10028 21078 58013
KTUL 211653Z 00000KT 10SM FEW250 02/M10 A3072 RMK AO2 SLP407 T00171100
KTUL 211553Z 13003KT 10SM CLR M01/M09 A3073 RMK AO2 SLP413 T10061089
KTUL 211453Z 00000KT 10SM CLR M02/M07 A3073 RMK AO2 SLP414 T10221067 53008
KTUL 211353Z 00000KT 10SM CLR M05/M08 A3072 RMK AO2 SLP409 T10501078
KTUL 211253Z 00000KT 10SM CLR M07/M09 A3070 RMK AO2 SLP405 T10721094
KTUL 211153Z 30004KT 10SM CLR M07/M09 A3071 RMK AO2 SLP406 T10721094 11050 21072 55006
KTUL 211053Z 00000KT 10SM CLR M06/M09 A3071 RMK AO2 SLP404 T10611089
KTUL 210953Z 35005KT 10SM CLR M06/M09 A3071 RMK AO2 SLP404 T10611094
KTUL 210853Z 32004KT 10SM CLR M06/M09 A3073 RMK AO2 SLP411 T10561089 58004
KTUL 210753Z 36005KT 10SM CLR M05/M09 A3074 RMK AO2 SLP414 T10501089
KTUL 210653Z 34003KT 10SM CLR M06/M09 A3074 RMK AO2 SLP417 T10561089
KTUL 210553Z 33006KT 10SM CLR M05/M08 A3074 RMK AO2 SLP416 T10501083 10022 21050 400671050 50002
KTUL 210453Z 34006KT 10SM CLR M04/M08 A3075 RMK AO2 SLP418 T10391083
KTUL 210353Z 36007KT 10SM CLR M03/M08 A3074 RMK AO2 SLP417 T10331083
KTUL 210253Z 35007KT 10SM CLR M02/M08 A3074 RMK AO2 SLP414 T10221078 53018